Time;durP1;ratioP1;P1;durP2;ratioP2;P2;SDS_P1;SDS_P2;PMS_P1;PMS_P2;Temp;Humidity;BMP_temperature;BMP_pressure;BME280_temperature;BME280_humidity;BME280_pressure;Samples;Min_cycle;Max_cycle;Signal;HPM_P1;HPM_P2
2021/06/19 00:00:12;;;;;;;7.88;4.13;;;24.90;80.90;;;;;;6096268;23;20041;-71
2021/06/19 00:02:38;;;;;;;7.95;3.83;;;24.90;81.00;;;;;;6096676;23;20049;-70
2021/06/19 00:05:06;;;;;;;8.43;4.05;;;24.90;81.00;;;;;;6096411;23;20063;-70
2021/06/19 00:07:31;;;;;;;8.88;3.92;;;24.90;81.20;;;;;;6122197;23;20060;-71
2021/06/19 00:09:57;;;;;;;9.10;3.90;;;24.90;81.40;;;;;;6122468;23;20026;-71
2021/06/19 00:12:23;;;;;;;7.72;4.00;;;24.90;81.60;;;;;;6072848;23;20017;-73
2021/06/19 00:14:49;;;;;;;8.80;4.03;;;24.90;81.90;;;;;;6072547;23;20016;-72
2021/06/19 00:17:16;;;;;;;6.88;3.90;;;24.80;82.00;;;;;;6072803;23;20013;-72
2021/06/19 00:19:42;;;;;;;6.82;4.28;;;24.80;82.40;;;;;;6072656;23;20056;-71
2021/06/19 00:22:08;;;;;;;7.85;4.40;;;24.70;82.90;;;;;;6122836;23;20013;-71
2021/06/19 00:24:38;;;;;;;6.32;4.05;;;24.70;82.80;;;;;;6122196;23;20086;-70
2021/06/19 00:27:05;;;;;;;6.72;3.83;;;24.70;83.00;;;;;;6122526;23;20009;-70
2021/06/19 00:29:31;;;;;;;9.85;4.78;;;24.70;82.70;;;;;;6073171;23;20321;-72
2021/06/19 00:31:58;;;;;;;5.05;4.07;;;24.70;82.50;;;;;;6096388;23;20016;-71
2021/06/19 00:34:25;;;;;;;7.72;4.15;;;24.70;82.60;;;;;;6096518;23;20011;-72
2021/06/19 00:36:51;;;;;;;10.02;4.18;;;24.70;82.90;;;;;;6122425;23;20023;-71
2021/06/19 00:39:17;;;;;;;11.15;4.10;;;24.70;83.30;;;;;;6096742;23;20014;-72
2021/06/19 00:41:43;;;;;;;9.82;4.35;;;24.60;83.20;;;;;;6122851;23;20322;-72
2021/06/19 00:44:20;;;;;;;7.85;4.25;;;24.60;83.40;;;;;;6096632;23;20332;-72
2021/06/19 00:46:57;;;;;;;7.25;4.05;;;24.60;83.70;;;;;;6072945;23;20011;-71
2021/06/19 00:49:25;;;;;;;11.57;4.53;;;24.50;83.50;;;;;;6072339;23;20010;-70
2021/06/19 00:51:51;;;;;;;8.30;4.38;;;24.60;83.90;;;;;;6121364;23;20120;-70
2021/06/19 00:54:18;;;;;;;10.95;4.32;;;24.60;83.90;;;;;;6096327;23;20133;-72
2021/06/19 00:56:45;;;;;;;7.65;4.72;;;24.60;84.10;;;;;;6072214;23;20006;-71
2021/06/19 00:59:13;;;;;;;8.98;4.22;;;24.60;84.30;;;;;;6072073;23;20448;-71
2021/06/19 01:01:39;;;;;;;8.07;4.53;;;24.60;84.40;;;;;;6122313;23;20021;-72
2021/06/19 01:04:06;;;;;;;7.20;4.57;;;24.60;84.80;;;;;;6072403;23;20009;-72
2021/06/19 01:06:34;;;;;;;9.95;4.85;;;24.60;84.90;;;;;;6096420;23;20040;-72
2021/06/19 01:09:01;;;;;;;6.95;4.50;;;24.70;85.10;;;;;;6096260;23;20538;-73
2021/06/19 01:11:29;;;;;;;9.98;4.20;;;24.60;85.60;;;;;;6122358;23;20018;-73
2021/06/19 01:13:55;;;;;;;10.52;4.80;;;24.60;86.00;;;;;;6122503;23;20016;-72
2021/06/19 01:16:21;;;;;;;6.00;4.10;;;24.60;87.00;;;;;;6096776;23;20335;-73
2021/06/19 01:18:47;;;;;;;6.85;4.15;;;24.60;86.80;;;;;;6073269;23;20016;-74
2021/06/19 01:21:15;;;;;;;8.38;4.22;;;24.60;86.70;;;;;;6096911;23;20010;-72
2021/06/19 01:23:42;;;;;;;11.20;4.85;;;24.60;86.80;;;;;;6123045;23;20010;-72
2021/06/19 01:26:07;;;;;;;10.57;4.47;;;24.60;86.60;;;;;;6121936;23;20025;-72
2021/06/19 01:28:33;;;;;;;10.70;4.90;;;24.60;86.60;;;;;;6072495;23;20014;-72
2021/06/19 01:30:59;;;;;;;8.93;4.15;;;24.60;86.30;;;;;;6122051;23;20014;-72
2021/06/19 01:33:25;;;;;;;6.32;4.03;;;24.70;86.00;;;;;;6072647;23;20535;-72
2021/06/19 01:35:51;;;;;;;8.82;4.53;;;24.70;86.20;;;;;;6096519;23;20063;-72
2021/06/19 01:38:17;;;;;;;6.90;4.13;;;24.70;86.50;;;;;;6122350;23;20460;-72
2021/06/19 01:40:43;;;;;;;7.07;4.35;;;24.80;86.90;;;;;;6096390;23;20022;-72
2021/06/19 01:43:09;;;;;;;7.88;3.88;;;24.90;86.80;;;;;;6097084;23;20037;-72
2021/06/19 01:45:35;;;;;;;5.93;3.80;;;24.90;86.80;;;;;;6121789;23;20071;-71
2021/06/19 01:48:07;;;;;;;6.82;4.05;;;24.80;87.60;;;;;;6122060;23;20496;-71
2021/06/19 01:50:34;;;;;;;8.88;4.57;;;24.80;87.40;;;;;;6096261;23;20079;-71
2021/06/19 01:53:01;;;;;;;9.63;4.35;;;24.90;87.50;;;;;;6072360;23;20017;-71
2021/06/19 01:55:27;;;;;;;6.43;3.83;;;24.90;87.00;;;;;;6072252;23;20347;-71
2021/06/19 01:57:55;;;;;;;8.27;4.28;;;24.80;87.70;;;;;;6072344;23;20448;-72
2021/06/19 02:00:24;;;;;;;7.22;4.05;;;24.80;87.20;;;;;;6121603;23;20014;-72
2021/06/19 02:02:50;;;;;;;6.25;3.75;;;24.70;87.20;;;;;;6072233;23;20144;-71
2021/06/19 02:05:18;;;;;;;6.60;3.80;;;24.60;87.20;;;;;;6122077;23;20063;-71
2021/06/19 02:08:06;;;;;;;9.45;4.18;;;24.60;87.90;;;;;;6096429;23;20048;-71
2021/06/19 02:10:35;;;;;;;7.00;4.22;;;24.50;88.30;;;;;;6095898;23;20025;-71
2021/06/19 02:13:04;;;;;;;8.15;3.63;;;24.60;88.10;;;;;;6096622;23;20071;-72
2021/06/19 02:15:30;;;;;;;10.25;4.55;;;24.70;87.90;;;;;;6096250;23;20018;-72
2021/06/19 02:17:56;;;;;;;5.50;3.75;;;24.80;87.60;;;;;;6121883;23;20475;-72
2021/06/19 02:20:24;;;;;;;11.02;3.78;;;24.80;87.60;;;;;;6072243;23;20014;-72
2021/06/19 02:22:50;;;;;;;8.18;3.83;;;24.90;87.80;;;;;;6072842;23;20336;-71
2021/06/19 02:25:19;;;;;;;9.52;3.75;;;25.00;87.50;;;;;;6095967;23;20429;-71
2021/06/19 02:27:56;;;;;;;5.15;3.30;;;25.10;88.00;;;;;;6072191;23;20009;-72
2021/06/19 02:30:45;;;;;;;11.95;4.05;;;25.20;88.30;;;;;;6071701;23;20348;-71
2021/06/19 02:33:12;;;;;;;5.80;3.80;;;25.30;88.00;;;;;;6095807;23;20411;-71
2021/06/19 02:35:41;;;;;;;6.10;3.80;;;25.40;88.30;;;;;;6095859;23;20010;-71
2021/06/19 02:38:08;;;;;;;8.05;3.40;;;25.50;88.30;;;;;;6071974;23;20405;-71
2021/06/19 02:40:35;;;;;;;7.30;3.63;;;25.60;88.40;;;;;;6072347;23;20018;-71
2021/06/19 02:43:01;;;;;;;8.60;3.40;;;25.70;88.20;;;;;;6096797;23;20106;-72
2021/06/19 02:45:27;;;;;;;9.70;3.95;;;25.70;87.90;;;;;;6121882;23;20345;-71
2021/06/19 02:47:56;;;;;;;8.55;3.88;;;25.80;88.00;;;;;;6121910;23;20012;-71
2021/06/19 02:50:25;;;;;;;11.23;3.90;;;25.90;87.80;;;;;;6095881;23;20017;-71
2021/06/19 02:52:51;;;;;;;8.23;3.63;;;25.90;87.80;;;;;;6095987;23;20033;-72
2021/06/19 02:55:20;;;;;;;10.45;3.95;;;26.00;87.80;;;;;;6121493;23;20002;-72
2021/06/19 02:57:47;;;;;;;9.32;3.85;;;26.10;88.40;;;;;;6121829;23;20063;-71
2021/06/19 03:00:17;;;;;;;11.40;4.18;;;26.20;88.80;;;;;;6095850;23;20016;-71
2021/06/19 03:02:44;;;;;;;5.78;3.85;;;26.30;88.30;;;;;;6121981;23;20014;-70
2021/06/19 03:05:13;;;;;;;11.07;4.05;;;26.40;88.40;;;;;;6095549;23;20517;-71
2021/06/19 03:07:39;;;;;;;11.52;4.18;;;26.40;88.60;;;;;;6095762;23;20024;-71
2021/06/19 03:10:12;;;;;;;15.38;5.25;;;26.50;88.60;;;;;;6095648;23;20067;-70
2021/06/19 03:12:38;;;;;;;8.57;4.60;;;26.50;89.90;;;;;;6122372;23;20022;-70
2021/06/19 03:15:06;;;;;;;7.55;4.43;;;26.50;89.60;;;;;;6096923;23;20006;-72
2021/06/19 03:17:32;;;;;;;14.52;4.20;;;26.50;89.10;;;;;;6097909;23;20440;-73
2021/06/19 03:19:58;;;;;;;11.10;4.10;;;26.50;88.60;;;;;;6122420;23;20037;-72
2021/06/19 03:22:24;;;;;;;10.55;4.30;;;26.50;88.10;;;;;;6072934;23;20014;-73
2021/06/19 03:24:50;;;;;;;10.35;4.35;;;26.60;86.80;;;;;;6096553;23;20014;-72
2021/06/19 03:27:17;;;;;;;8.00;3.85;;;26.60;86.40;;;;;;6122399;23;20025;-72
2021/06/19 03:29:44;;;;;;;13.57;4.00;;;26.60;85.30;;;;;;6122600;23;20348;-72
2021/06/19 03:32:10;;;;;;;8.65;4.30;;;26.70;86.10;;;;;;6096479;23;20020;-72
2021/06/19 03:34:41;;;;;;;10.10;4.15;;;26.80;86.40;;;;;;6072564;23;20033;-72
2021/06/19 03:37:08;;;;;;;12.68;4.22;;;26.90;86.90;;;;;;6050381;23;20018;-72
2021/06/19 03:39:35;;;;;;;9.30;4.05;;;26.90;86.70;;;;;;6072394;23;20013;-71
2021/06/19 03:42:01;;;;;;;10.32;4.30;;;27.00;86.70;;;;;;6072849;23;20020;-71
2021/06/19 03:44:28;;;;;;;10.13;3.67;;;27.10;87.00;;;;;;6072870;23;20018;-71
2021/06/19 03:46:54;;;;;;;12.63;4.20;;;27.20;87.10;;;;;;6072763;23;20006;-71
2021/06/19 03:49:21;;;;;;;6.85;3.53;;;27.20;88.60;;;;;;6122707;23;20006;-71
2021/06/19 03:51:48;;;;;;;10.13;3.70;;;;;;;;;;6096606;23;20018;-71
2021/06/19 03:54:15;;;;;;;8.02;3.67;;;;;;;;;;6072729;23;20006;-71
2021/06/19 03:56:42;;;;;;;7.70;3.78;;;27.40;91.20;;;;;;6122516;23;20014;-71
2021/06/19 03:59:08;;;;;;;8.57;3.47;;;27.50;91.30;;;;;;6096757;23;20022;-71
2021/06/19 04:01:34;;;;;;;10.43;3.60;;;27.60;91.40;;;;;;6072738;23;20097;-71
2021/06/19 04:04:00;;;;;;;10.82;3.25;;;27.70;91.20;;;;;;6122174;23;20456;-71
2021/06/19 04:06:26;;;;;;;10.23;3.50;;;27.80;90.80;;;;;;6072679;23;20010;-71
2021/06/19 04:08:52;;;;;;;6.97;3.45;;;27.90;90.40;;;;;;6122241;23;20042;-71
2021/06/19 04:11:19;;;;;;;12.45;3.40;;;27.90;90.40;;;;;;6096331;23;20464;-71
2021/06/19 04:13:45;;;;;;;6.80;2.90;;;28.00;90.70;;;;;;6096615;23;20448;-71
2021/06/19 04:16:11;;;;;;;8.57;3.40;;;28.10;90.70;;;;;;6096399;23;20021;-71
2021/06/19 04:18:40;;;;;;;9.95;3.40;;;28.20;90.80;;;;;;6072914;23;20010;-72
2021/06/19 04:21:07;;;;;;;8.13;2.92;;;28.20;90.90;;;;;;6122401;23;20321;-72
2021/06/19 04:23:34;;;;;;;10.02;3.47;;;28.30;90.50;;;;;;6122137;23;20105;-72
2021/06/19 04:26:01;;;;;;;5.32;3.10;;;28.30;88.30;;;;;;6122074;23;20462;-72
2021/06/19 04:28:28;;;;;;;10.25;3.17;;;28.40;87.50;;;;;;6096491;23;20101;-72
2021/06/19 04:30:59;;;;;;;5.18;3.40;;;28.50;87.40;;;;;;6096251;23;20506;-72
2021/06/19 04:33:28;;;;;;;6.90;2.97;;;28.50;86.70;;;;;;6122738;23;20506;-71
2021/06/19 04:35:56;;;;;;;9.05;3.03;;;28.60;86.50;;;;;;6122402;23;20100;-71
2021/06/19 04:38:22;;;;;;;11.55;2.80;;;28.70;85.90;;;;;;6097016;23;20067;-72
2021/06/19 04:43:15;;;;;;;3.83;2.30;;;28.80;85.20;;;;;;6122342;23;20089;-72
2021/06/19 04:45:42;;;;;;;3.83;2.35;;;28.90;85.40;;;;;;6122356;23;20068;-72
2021/06/19 04:48:08;;;;;;;5.32;1.90;;;29.00;85.80;;;;;;6122448;23;20029;-71
2021/06/19 04:50:36;;;;;;;3.55;1.90;;;29.00;85.80;;;;;;6122275;23;20079;-72
2021/06/19 04:53:03;;;;;;;2.60;1.90;;;29.10;85.80;;;;;;6122379;23;20014;-72
2021/06/19 04:55:30;;;;;;;3.65;2.00;;;29.20;85.40;;;;;;6096670;23;20504;-71
2021/06/19 04:57:58;;;;;;;3.35;2.00;;;29.20;85.20;;;;;;6096359;23;20009;-73
2021/06/19 05:00:28;;;;;;;4.82;1.92;;;29.30;85.20;;;;;;6096167;23;20026;-73
2021/06/19 05:02:54;;;;;;;5.35;1.90;;;29.40;85.30;;;;;;6096608;23;20096;-72
2021/06/19 05:05:21;;;;;;;3.05;1.70;;;29.50;85.00;;;;;;6122238;23;20030;-73
2021/06/19 05:07:47;;;;;;;3.72;2.38;;;29.60;85.20;;;;;;6071938;23;20096;-72
2021/06/19 05:10:13;;;;;;;3.90;2.15;;;29.60;84.90;;;;;;6122111;23;20139;-73
2021/06/19 05:12:43;;;;;;;4.72;2.35;;;29.70;84.90;;;;;;6122311;23;20092;-72
2021/06/19 05:15:12;;;;;;;4.03;2.20;;;29.70;84.90;;;;;;6096463;23;20028;-73
2021/06/19 05:17:39;;;;;;;7.53;2.30;;;29.80;84.90;;;;;;6096752;23;20061;-73
2021/06/19 05:20:07;;;;;;;4.30;2.35;;;29.80;85.40;;;;;;6096589;23;20010;-72
2021/06/19 05:22:34;;;;;;;3.78;2.13;;;29.80;85.40;;;;;;6096673;23;20041;-73
2021/06/19 05:25:01;;;;;;;5.75;2.22;;;29.90;85.10;;;;;;6121979;23;20131;-73
2021/06/19 05:27:27;;;;;;;10.60;2.28;;;29.90;85.20;;;;;;6121909;23;20018;-74
2021/06/19 05:29:53;;;;;;;6.57;2.35;;;30.00;85.10;;;;;;6096401;23;20009;-72
2021/06/19 05:32:19;;;;;;;4.80;2.00;;;30.00;84.80;;;;;;6121954;23;20104;-71
2021/06/19 05:34:45;;;;;;;7.75;1.98;;;30.00;84.60;;;;;;6071964;23;20056;-70
2021/06/19 05:37:11;;;;;;;6.57;2.13;;;30.10;85.30;;;;;;6122150;23;20340;-70
2021/06/19 05:39:37;;;;;;;6.32;1.92;;;30.20;84.60;;;;;;6122022;23;20038;-73
2021/06/19 05:42:03;;;;;;;6.93;2.17;;;30.20;84.10;;;;;;6072135;23;20021;-74
2021/06/19 05:44:29;;;;;;;3.15;1.50;;;30.30;83.30;;;;;;6072700;23;20020;-73
2021/06/19 05:46:55;;;;;;;6.55;1.80;;;30.30;82.90;;;;;;6121709;23;20089;-75
2021/06/19 05:49:21;;;;;;;5.53;1.52;;;30.30;82.40;;;;;;6096263;23;20018;-73
2021/06/19 05:51:47;;;;;;;6.78;1.85;;;30.40;82.40;;;;;;6121419;23;20026;-72
2021/06/19 05:54:13;;;;;;;4.10;1.98;;;30.50;81.80;;;;;;6095864;23;20037;-72
2021/06/19 05:56:39;;;;;;;3.88;1.73;;;30.50;80.70;;;;;;6121852;23;20379;-73
2021/06/19 05:59:05;;;;;;;5.78;1.70;;;30.50;80.10;;;;;;6121917;23;20009;-73
2021/06/19 06:01:31;;;;;;;7.30;2.00;;;30.50;78.80;;;;;;6095992;23;20039;-76
2021/06/19 06:03:58;;;;;;;5.20;1.70;;;30.50;78.30;;;;;;6048029;23;20041;-76
2021/06/19 06:06:25;;;;;;;3.50;2.05;;;30.50;77.80;;;;;;6072301;23;20010;-74
2021/06/19 06:08:51;;;;;;;5.38;1.92;;;30.50;77.90;;;;;;6096198;23;20317;-74
2021/06/19 06:11:18;;;;;;;6.65;1.63;;;30.40;78.00;;;;;;6095744;23;20029;-77
2021/06/19 06:13:44;;;;;;;2.03;1.63;;;30.50;77.10;;;;;;6121578;23;20351;-75
2021/06/19 06:16:10;;;;;;;4.32;2.20;;;30.40;78.00;;;;;;6121843;23;20014;-77
2021/06/19 06:18:36;;;;;;;2.72;1.80;;;30.40;78.20;;;;;;6121520;23;20017;-79
2021/06/19 06:21:04;;;;;;;2.25;1.58;;;30.50;78.30;;;;;;6091831;23;20025;-79
2021/06/19 06:23:30;;;;;;;3.35;2.10;;;30.40;78.20;;;;;;6120019;23;20017;-77
2021/06/19 06:25:57;;;;;;;3.20;1.77;;;30.50;78.20;;;;;;6072037;23;20018;-77
2021/06/19 06:28:23;;;;;;;6.65;1.95;;;30.40;78.30;;;;;;6071313;23;20014;-76
2021/06/19 06:30:49;;;;;;;3.60;1.90;;;30.40;77.90;;;;;;6095851;23;20024;-76
2021/06/19 06:33:16;;;;;;;4.68;1.73;;;30.40;77.90;;;;;;6094852;23;20021;-73
2021/06/19 06:35:42;;;;;;;9.40;2.40;;;30.50;77.90;;;;;;6071933;23;20345;-77
2021/06/19 06:38:08;;;;;;;6.55;2.20;;;30.50;77.50;;;;;;6072088;23;20054;-84
2021/06/19 06:40:35;;;;;;;3.47;2.00;;;30.50;77.80;;;;;;6121885;23;20014;-77
2021/06/19 06:43:04;;;;;;;6.38;2.00;;;30.50;77.60;;;;;;6122063;23;20014;-79
2021/06/19 06:45:30;;;;;;;5.93;1.92;;;30.50;77.40;;;;;;6072967;23;20018;-80
2021/06/19 06:47:57;;;;;;;8.95;2.00;;;30.50;76.70;;;;;;6096272;23;20079;-77
2021/06/19 06:50:26;;;;;;;4.50;1.60;;;30.50;76.90;;;;;;6095749;23;20105;-81
2021/06/19 06:52:52;;;;;;;10.73;2.03;;;30.50;76.30;;;;;;6122160;23;20094;-79
2021/06/19 06:55:18;;;;;;;7.45;1.90;;;30.50;76.40;;;;;;6122761;23;20044;-79
2021/06/19 06:57:45;;;;;;;8.68;2.10;;;30.50;76.30;;;;;;6071768;23;20006;-84
2021/06/19 07:00:12;;;;;;;18.48;6.07;;;30.50;75.90;;;;;;6095971;23;20348;-78
2021/06/19 07:02:42;;;;;;;14.57;5.68;;;30.50;77.00;;;;;;6121648;23;20017;-77
2021/06/19 07:05:12;;;;;;;10.98;4.38;;;30.50;78.10;;;;;;6095630;23;20020;-75
2021/06/19 07:07:39;;;;;;;7.43;3.20;;;30.50;76.70;;;;;;6095691;23;20018;-75
2021/06/19 07:10:10;;;;;;;7.80;2.90;;;30.50;77.10;;;;;;6071315;23;20577;-73
2021/06/19 07:12:41;;;;;;;9.95;3.08;;;30.50;76.00;;;;;;6071359;23;20401;-74
2021/06/19 07:15:10;;;;;;;7.60;2.67;;;30.50;76.00;;;;;;6095441;23;20057;-75
2021/06/19 07:17:36;;;;;;;6.82;2.50;;;30.50;75.60;;;;;;6071565;23;20039;-75
2021/06/19 07:20:07;;;;;;;13.10;3.17;;;30.50;75.40;;;;;;6121345;23;20025;-75
2021/06/19 07:22:33;;;;;;;10.60;2.95;;;30.50;75.90;;;;;;6096041;23;20040;-74
2021/06/19 07:25:01;;;;;;;18.42;3.10;;;30.50;76.30;;;;;;6095284;23;20091;-76
2021/06/19 07:27:28;;;;;;;11.38;3.22;;;30.50;76.90;;;;;;6096144;23;20101;-71
2021/06/19 07:29:54;;;;;;;9.63;2.95;;;30.50;76.90;;;;;;6071358;23;20013;-73
2021/06/19 07:32:20;;;;;;;8.60;2.92;;;30.50;76.80;;;;;;6090097;23;20026;-73
2021/06/19 07:34:46;;;;;;;7.35;2.60;;;30.40;77.00;;;;;;6090732;23;20457;-73
2021/06/19 07:37:12;;;;;;;13.18;2.40;;;30.40;77.30;;;;;;6092064;23;20402;-74
2021/06/19 07:39:38;;;;;;;15.65;2.25;;;30.40;77.20;;;;;;6091843;23;20011;-75
2021/06/19 07:42:04;;;;;;;12.95;2.25;;;30.40;76.60;;;;;;6092107;23;20340;-76
2021/06/19 07:44:31;;;;;;;18.15;2.72;;;30.40;75.40;;;;;;6090976;23;20010;-75
2021/06/19 07:47:00;;;;;;;11.60;2.78;;;30.40;78.00;;;;;;6090605;23;20014;-75
2021/06/19 07:49:26;;;;;;;10.25;2.40;;;30.40;78.40;;;;;;6090242;23;20018;-74
2021/06/19 07:51:53;;;;;;;16.48;2.75;;;30.40;78.80;;;;;;6091636;23;20068;-73
2021/06/19 07:54:19;;;;;;;7.22;2.60;;;30.40;79.90;;;;;;6090741;23;20093;-73
2021/06/19 07:56:47;;;;;;;8.75;2.70;;;30.40;80.60;;;;;;6090790;23;20471;-74
2021/06/19 07:59:14;;;;;;;7.00;2.70;;;30.50;80.80;;;;;;6091385;23;20018;-72
2021/06/19 08:01:40;;;;;;;8.02;2.53;;;30.60;81.00;;;;;;6091416;23;20010;-73
2021/06/19 08:04:07;;;;;;;6.70;2.33;;;30.70;80.90;;;;;;6093439;23;20006;-73
2021/06/19 08:06:33;;;;;;;6.03;2.65;;;30.80;80.60;;;;;;6091788;23;20022;-73
2021/06/19 08:08:59;;;;;;;7.30;2.80;;;30.80;78.60;;;;;;6092142;23;20017;-73
2021/06/19 08:11:26;;;;;;;7.10;2.28;;;30.80;77.20;;;;;;6093090;23;20094;-73
2021/06/19 08:13:53;;;;;;;7.50;2.55;;;30.80;77.10;;;;;;6091746;23;20484;-73
2021/06/19 08:16:20;;;;;;;9.35;2.55;;;30.90;77.10;;;;;;6092877;23;20036;-73
2021/06/19 08:18:47;;;;;;;4.45;2.25;;;30.90;76.90;;;;;;6091527;23;20017;-74
2021/06/19 08:21:14;;;;;;;5.10;2.30;;;31.00;76.80;;;;;;6093273;23;20033;-73
2021/06/19 08:23:40;;;;;;;5.45;2.42;;;31.00;77.30;;;;;;6093286;23;20119;-74
2021/06/19 08:26:06;;;;;;;4.85;2.53;;;31.00;76.10;;;;;;6092840;23;20033;-74
2021/06/19 08:28:34;;;;;;;11.60;2.15;;;31.00;76.00;;;;;;6093351;23;20010;-73
2021/06/19 08:31:02;;;;;;;7.78;2.40;;;31.00;74.60;;;;;;6093125;23;20097;-73
2021/06/19 08:33:28;;;;;;;6.43;2.40;;;31.10;75.00;;;;;;6091874;23;20018;-74
2021/06/19 08:35:54;;;;;;;5.50;2.65;;;31.00;76.00;;;;;;6091644;23;20010;-74
2021/06/19 08:38:20;;;;;;;5.85;2.20;;;31.10;77.30;;;;;;6091829;23;20018;-73
2021/06/19 08:40:46;;;;;;;5.18;2.20;;;31.10;79.40;;;;;;6093797;23;20056;-73
2021/06/19 08:43:12;;;;;;;5.55;2.33;;;31.10;79.30;;;;;;6092911;23;20017;-72
2021/06/19 08:45:39;;;;;;;7.22;2.50;;;31.10;79.00;;;;;;6092788;23;20026;-73
2021/06/19 08:48:06;;;;;;;4.28;2.40;;;31.10;79.60;;;;;;6091146;23;20544;-73
2021/06/19 08:50:35;;;;;;;5.13;2.20;;;31.10;79.80;;;;;;6091560;23;20018;-74
2021/06/19 08:53:01;;;;;;;5.57;2.80;;;31.00;79.00;;;;;;6092839;23;20330;-73
2021/06/19 08:55:28;;;;;;;2.67;2.00;;;31.10;79.10;;;;;;6067387;23;20042;-74
2021/06/19 08:57:54;;;;;;;3.85;2.35;;;31.10;79.50;;;;;;6093301;23;20010;-74
2021/06/19 09:00:20;;;;;;;5.00;2.08;;;31.10;78.80;;;;;;6067571;23;20172;-74
2021/06/19 09:02:48;;;;;;;4.07;2.42;;;31.10;79.10;;;;;;6092025;23;20014;-74
2021/06/19 09:05:28;;;;;;;5.90;2.50;;;31.10;78.70;;;;;;6092007;23;20464;-74
2021/06/19 09:07:58;;;;;;;3.33;2.22;;;31.00;79.00;;;;;;6092379;23;20064;-74
2021/06/19 09:10:28;;;;;;;8.82;2.63;;;31.10;78.10;;;;;;6090943;23;20026;-74
2021/06/19 09:12:57;;;;;;;8.80;2.10;;;31.00;77.60;;;;;;6093190;23;20021;-74
2021/06/19 09:15:24;;;;;;;4.18;2.50;;;31.00;76.80;;;;;;6093338;23;20059;-73
2021/06/19 09:18:30;;;;;;;5.03;2.20;;;31.00;77.60;;;;;;6093075;23;20469;-73
2021/06/19 09:21:01;;;;;;;5.15;2.35;;;31.00;78.10;;;;;;6183527;23;20012;-74
2021/06/19 09:23:37;;;;;;;5.03;2.67;;;31.00;77.40;;;;;;6158592;23;20036;-74
2021/06/19 09:26:10;;;;;;;6.85;2.40;;;31.00;77.70;;;;;;6130664;23;20014;-74
2021/06/19 09:28:56;;;;;;;4.00;2.20;;;31.00;78.10;;;;;;6091557;23;20069;-73
2021/06/19 09:31:40;;;;;;;14.00;2.47;;;31.00;78.40;;;;;;6092875;23;20022;-73
2021/06/19 09:34:35;;;;;;;3.78;2.40;;;31.00;77.10;;;;;;6091316;23;20026;-73
2021/06/19 09:37:08;;;;;;;5.93;2.00;;;31.00;76.70;;;;;;6095433;23;20047;-74
2021/06/19 09:39:38;;;;;;;6.00;2.45;;;31.00;76.60;;;;;;6093787;23;20059;-74
2021/06/19 09:42:07;;;;;;;4.50;2.60;;;30.90;77.90;;;;;;6092821;23;20007;-73
2021/06/19 09:44:43;;;;;;;5.18;2.50;;;30.90;77.30;;;;;;6091234;23;20537;-73
2021/06/19 09:47:10;;;;;;;6.30;2.50;;;30.90;77.70;;;;;;6091841;23;20014;-73
2021/06/19 09:49:40;;;;;;;3.75;1.90;;;30.90;77.50;;;;;;6091610;23;20010;-74
2021/06/19 09:52:09;;;;;;;4.75;2.22;;;30.90;78.10;;;;;;6091506;23;20018;-74
2021/06/19 09:54:43;;;;;;;4.88;2.20;;;30.90;77.40;;;;;;6091108;23;20018;-74
2021/06/19 09:57:18;;;;;;;4.35;2.42;;;30.90;77.30;;;;;;6091336;23;20109;-74
2021/06/19 09:59:44;;;;;;;6.45;2.28;;;30.90;76.20;;;;;;6093201;23;20405;-74
2021/06/19 10:02:20;;;;;;;3.75;2.47;;;30.90;76.30;;;;;;6092943;23;20018;-74
2021/06/19 10:04:57;;;;;;;5.45;2.17;;;30.80;77.00;;;;;;6091499;23;20089;-74
2021/06/19 10:07:44;;;;;;;5.68;2.20;;;30.80;77.50;;;;;;6091081;23;20021;-74
2021/06/19 10:10:12;;;;;;;5.57;2.97;;;30.80;77.70;;;;;;6091411;23;20011;-74
2021/06/19 10:12:39;;;;;;;3.20;2.28;;;30.80;76.00;;;;;;6067497;23;20014;-73
2021/06/19 10:15:08;;;;;;;4.32;1.95;;;30.80;75.90;;;;;;6091087;23;20010;-74
2021/06/19 10:17:38;;;;;;;5.03;2.40;;;30.80;75.90;;;;;;6091045;23;20097;-74
2021/06/19 10:20:15;;;;;;;6.65;2.50;;;30.80;75.20;;;;;;6091294;23;20459;-74
2021/06/19 10:22:56;;;;;;;4.15;2.03;;;30.80;74.30;;;;;;6091192;23;20018;-74
2021/06/19 10:25:27;;;;;;;6.18;2.10;;;30.80;74.90;;;;;;6092625;23;20349;-75
2021/06/19 10:27:54;;;;;;;3.28;2.10;;;30.80;74.40;;;;;;6091328;23;20361;-75
2021/06/19 10:30:25;;;;;;;4.65;2.03;;;30.80;75.10;;;;;;6092725;23;20232;-75
2021/06/19 10:32:51;;;;;;;4.05;2.20;;;30.70;75.50;;;;;;6090819;23;20029;-73
2021/06/19 10:35:20;;;;;;;3.45;1.90;;;30.70;75.90;;;;;;6091245;23;20014;-74
2021/06/19 10:37:47;;;;;;;3.58;2.03;;;30.80;76.80;;;;;;6091206;23;20454;-74
2021/06/19 10:40:25;;;;;;;5.63;2.15;;;30.80;76.30;;;;;;6090919;23;20014;-74
2021/06/19 10:43:13;;;;;;;3.05;2.13;;;30.70;75.40;;;;;;6067273;23;20034;-73
2021/06/19 10:45:43;;;;;;;4.60;2.33;;;30.70;74.70;;;;;;6092660;23;20093;-74
2021/06/19 10:48:13;;;;;;;4.00;2.15;;;30.80;76.50;;;;;;6091294;23;20531;-73
2021/06/19 10:50:45;;;;;;;5.88;2.00;;;30.70;76.60;;;;;;6091041;23;20022;-73
2021/06/19 10:53:17;;;;;;;2.63;2.00;;;30.70;75.30;;;;;;6091151;23;20011;-73
2021/06/19 10:55:43;;;;;;;4.65;2.13;;;30.70;75.00;;;;;;6092134;23;20537;-75
2021/06/19 10:58:30;;;;;;;4.15;2.20;;;30.70;75.30;;;;;;6092716;23;20053;-73
2021/06/19 11:01:04;;;;;;;3.55;1.92;;;30.70;76.90;;;;;;6067050;23;20042;-74
2021/06/19 11:03:44;;;;;;;4.38;2.05;;;30.70;76.90;;;;;;6093003;23;20483;-73
2021/06/19 11:06:25;;;;;;;4.30;2.00;;;30.70;77.00;;;;;;6093041;23;20015;-74
2021/06/19 11:08:58;;;;;;;4.82;2.03;;;30.70;76.10;;;;;;6091109;23;20053;-74
2021/06/19 11:11:47;;;;;;;4.75;2.03;;;30.70;75.80;;;;;;6090937;23;20449;-74
2021/06/19 11:14:33;;;;;;;7.35;2.15;;;30.70;76.20;;;;;;6090877;23;20042;-74
2021/06/19 11:16:59;;;;;;;2.47;2.08;;;30.70;76.30;;;;;;6092640;23;20093;-74
2021/06/19 11:19:36;;;;;;;5.78;2.10;;;30.70;76.90;;;;;;6090661;23;20046;-74
2021/06/19 11:22:39;;;;;;;6.85;2.00;;;30.70;77.10;;;;;;6092562;23;20064;-74
2021/06/19 11:25:14;;;;;;;8.23;2.47;;;30.60;77.00;;;;;;6091309;23;20015;-74
2021/06/19 11:28:06;;;;;;;5.18;2.47;;;30.60;76.80;;;;;;6092423;23;20094;-74
2021/06/19 11:30:36;;;;;;;2.95;2.10;;;30.60;77.90;;;;;;6092298;23;20061;-74
2021/06/19 11:33:19;;;;;;;3.55;2.20;;;30.70;78.30;;;;;;6108617;23;20022;-74
2021/06/19 11:36:13;;;;;;;2.90;2.35;;;30.60;77.60;;;;;;6122681;23;20013;-74
2021/06/19 11:38:51;;;;;;;8.18;2.25;;;30.60;77.30;;;;;;6096484;23;20017;-74
2021/06/19 11:41:20;;;;;;;2.85;2.10;;;30.60;77.80;;;;;;6096538;23;20013;-73
2021/06/19 11:43:46;;;;;;;2.28;2.10;;;30.60;77.50;;;;;;6096585;23;20006;-74
2021/06/19 11:46:13;;;;;;;4.70;2.25;;;30.60;76.60;;;;;;6096507;23;20018;-73
2021/06/19 11:48:55;;;;;;;3.75;2.15;;;30.60;76.10;;;;;;6123352;23;20076;-75
2021/06/19 11:51:26;;;;;;;4.70;2.15;;;30.60;77.20;;;;;;6122424;23;20022;-73
2021/06/19 11:53:53;;;;;;;4.22;2.30;;;30.60;76.70;;;;;;6097545;23;20105;-73
2021/06/19 11:56:27;;;;;;;4.25;2.20;;;30.60;77.30;;;;;;6096711;23;20010;-74
2021/06/19 11:59:01;;;;;;;4.55;1.80;;;30.60;76.80;;;;;;6073188;23;20013;-73
2021/06/19 12:01:54;;;;;;;5.00;2.10;;;30.60;76.80;;;;;;6096452;23;20014;-73
2021/06/19 12:04:24;;;;;;;4.60;2.15;;;30.50;77.00;;;;;;6123365;23;20021;-73
2021/06/19 12:06:58;;;;;;;2.97;2.17;;;30.60;76.10;;;;;;6122574;23;20014;-74
2021/06/19 12:09:35;;;;;;;3.03;1.90;;;30.60;77.20;;;;;;6096640;23;20013;-74
2021/06/19 12:12:03;;;;;;;4.15;1.88;;;30.60;76.50;;;;;;6096115;23;20022;-74
2021/06/19 12:14:31;;;;;;;3.95;2.22;;;30.60;76.60;;;;;;6122581;23;20013;-73
2021/06/19 12:17:03;;;;;;;6.38;2.20;;;30.60;75.60;;;;;;6122512;23;20092;-74
2021/06/19 12:19:32;;;;;;;3.88;2.28;;;30.60;75.10;;;;;;6097502;23;20014;-74
2021/06/19 12:22:07;;;;;;;3.92;2.30;;;30.60;74.70;;;;;;6096729;23;20006;-74
2021/06/19 12:24:36;;;;;;;4.00;2.03;;;30.60;74.80;;;;;;6096991;23;20010;-74
2021/06/19 12:27:31;;;;;;;6.00;2.15;;;30.50;74.70;;;;;;6096247;23;20100;-74
2021/06/19 12:29:59;;;;;;;5.17;2.33;;;30.60;74.70;;;;;;6097384;23;20036;-74
2021/06/19 12:32:34;;;;;;;4.55;2.25;;;30.60;75.10;;;;;;6096364;23;20018;-74
2021/06/19 12:35:14;;;;;;;5.65;2.25;;;30.60;75.80;;;;;;6072183;23;20006;-73
2021/06/19 12:37:42;;;;;;;6.43;2.28;;;30.50;74.50;;;;;;6072440;23;20101;-73
2021/06/19 12:40:10;;;;;;;4.15;2.10;;;30.60;75.10;;;;;;6072448;23;20014;-74
2021/06/19 12:42:38;;;;;;;5.28;2.25;;;30.50;75.30;;;;;;6072785;23;20014;-74
2021/06/19 12:45:20;;;;;;;3.75;1.95;;;30.50;76.00;;;;;;6096880;23;20377;-73
2021/06/19 12:47:49;;;;;;;2.92;2.15;;;30.50;76.50;;;;;;6096506;23;20084;-73
2021/06/19 12:50:40;;;;;;;2.58;1.90;;;30.50;76.20;;;;;;6096602;23;20017;-73
2021/06/19 12:53:14;;;;;;;6.40;2.38;;;30.50;75.90;;;;;;6096751;23;20010;-73
2021/06/19 12:56:04;;;;;;;3.90;1.93;;;30.50;75.60;;;;;;6096958;23;20040;-74
2021/06/19 12:58:40;;;;;;;3.03;2.00;;;30.50;76.30;;;;;;6121585;23;20364;-73